Terminal Aerodrome Forecast
Issued by NWS

Home | Current Version | Previous Version | Text Only | Print | Product List | Glossary On
Versions: 1 2 3 4 5 6 7 8 9 10 11 12 13 14
798
FTUS45 KTFX 241424 AAA
TAFHLN
TAF AMD
KHLN 241424Z 2414/2512 VRB06KT P6SM VCSH SCT010 BKN040
      TEMPO 2414/2416 BKN007
     FM241700 34006KT P6SM VCSH SCT040 BKN060
     FM250600 VRB03KT P6SM OVC100=

USA.gov is the U.S. government's official web portal to all federal, state and local government web resources and services.